sensor_id;sensor_type;location;lat;lon;timestamp;temperature;humidity
71367;DHT22;60030;52.274;8.040;2022-10-19T00:00:42;11.20;99.90
71367;DHT22;60030;52.274;8.040;2022-10-19T00:03:09;11.10;99.90
71367;DHT22;60030;52.274;8.040;2022-10-19T00:05:36;11.10;99.90
71367;DHT22;60030;52.274;8.040;2022-10-19T00:08:04;11.10;99.90
71367;DHT22;60030;52.274;8.040;2022-10-19T00:10:31;11.00;99.90
71367;DHT22;60030;52.274;8.040;2022-10-19T00:12:58;11.00;99.90
71367;DHT22;60030;52.274;8.040;2022-10-19T00:15:26;11.00;99.90
71367;DHT22;60030;52.274;8.040;2022-10-19T00:17:54;10.90;99.90
71367;DHT22;60030;52.274;8.040;2022-10-19T00:20:21;10.90;99.90
71367;DHT22;60030;52.274;8.040;2022-10-19T00:22:49;10.90;99.90
71367;DHT22;60030;52.274;8.040;2022-10-19T00:25:16;10.90;99.90
71367;DHT22;60030;52.274;8.040;2022-10-19T00:27:43;10.90;99.90
71367;DHT22;60030;52.274;8.040;2022-10-19T00:30:10;10.90;99.90
71367;DHT22;60030;52.274;8.040;2022-10-19T00:32:39;10.90;99.90
71367;DHT22;60030;52.274;8.040;2022-10-19T00:35:06;10.90;99.90
71367;DHT22;60030;52.274;8.040;2022-10-19T00:37:34;10.80;99.90
71367;DHT22;60030;52.274;8.040;2022-10-19T00:40:01;10.80;99.90
71367;DHT22;60030;52.274;8.040;2022-10-19T00:42:28;10.70;99.90
71367;DHT22;60030;52.274;8.040;2022-10-19T00:45:05;10.70;99.90
71367;DHT22;60030;52.274;8.040;2022-10-19T00:47:32;10.60;99.90
71367;DHT22;60030;52.274;8.040;2022-10-19T00:50:01;10.60;99.90
71367;DHT22;60030;52.274;8.040;2022-10-19T00:52:29;10.70;99.90
71367;DHT22;60030;52.274;8.040;2022-10-19T00:54:57;10.70;99.90
71367;DHT22;60030;52.274;8.040;2022-10-19T00:57:27;10.70;99.90
71367;DHT22;60030;52.274;8.040;2022-10-19T00:59:55;10.60;99.90
71367;DHT22;60030;52.274;8.040;2022-10-19T01:02:23;10.60;99.90
71367;DHT22;60030;52.274;8.040;2022-10-19T01:04:51;10.50;99.90
71367;DHT22;60030;52.274;8.040;2022-10-19T01:07:19;10.60;99.90
71367;DHT22;60030;52.274;8.040;2022-10-19T01:09:46;10.50;99.90
71367;DHT22;60030;52.274;8.040;2022-10-19T01:12:45;10.50;99.90
71367;DHT22;60030;52.274;8.040;2022-10-19T01:15:24;10.50;99.90
71367;DHT22;60030;52.274;8.040;2022-10-19T01:18:00;10.50;99.90
71367;DHT22;60030;52.274;8.040;2022-10-19T01:20:51;10.50;99.90
71367;DHT22;60030;52.274;8.040;2022-10-19T01:26:45;10.40;99.90
71367;DHT22;60030;52.274;8.040;2022-10-19T01:29:21;10.40;99.90
71367;DHT22;60030;52.274;8.040;2022-10-19T01:31:57;10.40;99.90
71367;DHT22;60030;52.274;8.040;2022-10-19T01:34:31;10.30;99.90
71367;DHT22;60030;52.274;8.040;2022-10-19T01:37:01;10.30;99.90
71367;DHT22;60030;52.274;8.040;2022-10-19T01:39:39;10.30;99.90
71367;DHT22;60030;52.274;8.040;2022-10-19T01:42:11;10.30;99.90
71367;DHT22;60030;52.274;8.040;2022-10-19T01:44:43;10.30;99.90
71367;DHT22;60030;52.274;8.040;2022-10-19T01:47:16;10.30;99.90
71367;DHT22;60030;52.274;8.040;2022-10-19T01:49:49;10.30;99.90
71367;DHT22;60030;52.274;8.040;2022-10-19T01:52:20;10.30;99.90
71367;DHT22;60030;52.274;8.040;2022-10-19T01:54:51;10.30;99.90
71367;DHT22;60030;52.274;8.040;2022-10-19T01:57:21;10.20;99.90
71367;DHT22;60030;52.274;8.040;2022-10-19T01:59:50;10.20;99.90
71367;DHT22;60030;52.274;8.040;2022-10-19T02:02:20;10.20;99.90
71367;DHT22;60030;52.274;8.040;2022-10-19T02:04:49;10.20;99.90
71367;DHT22;60030;52.274;8.040;2022-10-19T02:07:20;10.20;99.90
71367;DHT22;60030;52.274;8.040;2022-10-19T02:09:48;10.10;99.90
71367;DHT22;60030;52.274;8.040;2022-10-19T02:12:16;10.10;99.90
71367;DHT22;60030;52.274;8.040;2022-10-19T02:14:48;10.20;99.90
71367;DHT22;60030;52.274;8.040;2022-10-19T02:17:18;10.20;99.90
71367;DHT22;60030;52.274;8.040;2022-10-19T02:19:47;10.30;99.90
71367;DHT22;60030;52.274;8.040;2022-10-19T02:22:14;10.30;99.90
71367;DHT22;60030;52.274;8.040;2022-10-19T02:24:41;10.40;99.90
71367;DHT22;60030;52.274;8.040;2022-10-19T02:27:09;10.40;99.90
71367;DHT22;60030;52.274;8.040;2022-10-19T02:29:36;10.30;99.90
71367;DHT22;60030;52.274;8.040;2022-10-19T02:32:05;10.20;99.90
71367;DHT22;60030;52.274;8.040;2022-10-19T02:34:33;10.20;99.90
71367;DHT22;60030;52.274;8.040;2022-10-19T02:37:02;10.30;99.90
71367;DHT22;60030;52.274;8.040;2022-10-19T02:39:29;10.30;99.90
71367;DHT22;60030;52.274;8.040;2022-10-19T02:42:00;10.40;99.90
71367;DHT22;60030;52.274;8.040;2022-10-19T02:44:39;10.40;99.90
71367;DHT22;60030;52.274;8.040;2022-10-19T02:47:11;10.40;99.90
71367;DHT22;60030;52.274;8.040;2022-10-19T02:49:40;10.50;99.90
71367;DHT22;60030;52.274;8.040;2022-10-19T02:52:11;10.40;99.90
71367;DHT22;60030;52.274;8.040;2022-10-19T02:54:40;10.50;99.90
71367;DHT22;60030;52.274;8.040;2022-10-19T02:57:14;10.50;99.90
71367;DHT22;60030;52.274;8.040;2022-10-19T02:59:42;10.50;99.90
71367;DHT22;60030;52.274;8.040;2022-10-19T03:02:09;10.50;99.90
71367;DHT22;60030;52.274;8.040;2022-10-19T03:04:36;10.50;99.90
71367;DHT22;60030;52.274;8.040;2022-10-19T03:07:03;10.50;99.90
71367;DHT22;60030;52.274;8.040;2022-10-19T03:09:32;10.60;99.90
71367;DHT22;60030;52.274;8.040;2022-10-19T03:11:59;10.70;99.90
71367;DHT22;60030;52.274;8.040;2022-10-19T03:14:26;10.70;99.90
71367;DHT22;60030;52.274;8.040;2022-10-19T03:16:53;10.70;99.90
71367;DHT22;60030;52.274;8.040;2022-10-19T03:19:20;10.70;99.90
71367;DHT22;60030;52.274;8.040;2022-10-19T03:21:47;10.80;99.90
71367;DHT22;60030;52.274;8.040;2022-10-19T03:24:15;10.80;99.90
71367;DHT22;60030;52.274;8.040;2022-10-19T03:26:43;10.90;99.90
71367;DHT22;60030;52.274;8.040;2022-10-19T03:29:10;10.80;99.90
71367;DHT22;60030;52.274;8.040;2022-10-19T03:31:37;10.80;99.90
71367;DHT22;60030;52.274;8.040;2022-10-19T03:34:04;10.90;99.90
71367;DHT22;60030;52.274;8.040;2022-10-19T03:36:33;10.70;99.90
71367;DHT22;60030;52.274;8.040;2022-10-19T03:39:03;10.80;99.90
71367;DHT22;60030;52.274;8.040;2022-10-19T03:41:33;10.70;99.90
71367;DHT22;60030;52.274;8.040;2022-10-19T03:44:02;10.70;99.90
71367;DHT22;60030;52.274;8.040;2022-10-19T03:46:30;10.70;99.90
71367;DHT22;60030;52.274;8.040;2022-10-19T03:48:58;10.70;99.90
71367;DHT22;60030;52.274;8.040;2022-10-19T03:51:27;10.70;99.90
71367;DHT22;60030;52.274;8.040;2022-10-19T03:53:56;10.70;99.90
71367;DHT22;60030;52.274;8.040;2022-10-19T03:56:25;10.80;99.90
71367;DHT22;60030;52.274;8.040;2022-10-19T03:58:54;10.70;99.90
71367;DHT22;60030;52.274;8.040;2022-10-19T04:01:24;10.80;99.90
71367;DHT22;60030;52.274;8.040;2022-10-19T04:03:52;10.80;99.90
71367;DHT22;60030;52.274;8.040;2022-10-19T04:06:22;10.70;99.90
71367;DHT22;60030;52.274;8.040;2022-10-19T04:08:49;10.70;99.90
71367;DHT22;60030;52.274;8.040;2022-10-19T04:11:19;10.60;99.90
71367;DHT22;60030;52.274;8.040;2022-10-19T04:13:47;10.70;99.90
71367;DHT22;60030;52.274;8.040;2022-10-19T04:16:15;10.60;99.90
71367;DHT22;60030;52.274;8.040;2022-10-19T04:18:43;10.80;99.90
71367;DHT22;60030;52.274;8.040;2022-10-19T04:21:19;10.70;99.90
71367;DHT22;60030;52.274;8.040;2022-10-19T04:23:48;10.60;99.90
71367;DHT22;60030;52.274;8.040;2022-10-19T04:26:15;10.70;99.90
71367;DHT22;60030;52.274;8.040;2022-10-19T04:28:42;10.70;99.90
71367;DHT22;60030;52.274;8.040;2022-10-19T04:31:10;10.70;99.90
71367;DHT22;60030;52.274;8.040;2022-10-19T04:33:38;10.80;99.90
71367;DHT22;60030;52.274;8.040;2022-10-19T04:36:09;10.80;99.90
71367;DHT22;60030;52.274;8.040;2022-10-19T04:38:37;10.80;99.90
71367;DHT22;60030;52.274;8.040;2022-10-19T04:41:06;10.80;99.90
71367;DHT22;60030;52.274;8.040;2022-10-19T04:43:33;10.80;99.90
71367;DHT22;60030;52.274;8.040;2022-10-19T04:46:02;10.80;99.90
71367;DHT22;60030;52.274;8.040;2022-10-19T04:48:29;10.80;99.90
71367;DHT22;60030;52.274;8.040;2022-10-19T04:50:56;10.80;99.90
71367;DHT22;60030;52.274;8.040;2022-10-19T04:53:25;10.70;99.90
71367;DHT22;60030;52.274;8.040;2022-10-19T04:55:53;10.80;99.90
71367;DHT22;60030;52.274;8.040;2022-10-19T04:58:20;10.80;99.90
71367;DHT22;60030;52.274;8.040;2022-10-19T05:00:47;10.90;99.90
71367;DHT22;60030;52.274;8.040;2022-10-19T05:03:16;10.90;99.90
71367;DHT22;60030;52.274;8.040;2022-10-19T05:05:44;10.90;99.90
71367;DHT22;60030;52.274;8.040;2022-10-19T05:08:11;10.90;99.90
71367;DHT22;60030;52.274;8.040;2022-10-19T05:10:39;10.90;99.90
71367;DHT22;60030;52.274;8.040;2022-10-19T05:13:06;10.90;99.90
71367;DHT22;60030;52.274;8.040;2022-10-19T05:15:33;11.00;99.90
71367;DHT22;60030;52.274;8.040;2022-10-19T05:18:00;11.00;99.90
71367;DHT22;60030;52.274;8.040;2022-10-19T05:20:27;11.00;99.90
71367;DHT22;60030;52.274;8.040;2022-10-19T05:22:54;10.90;99.90
71367;DHT22;60030;52.274;8.040;2022-10-19T05:25:21;10.90;99.90
71367;DHT22;60030;52.274;8.040;2022-10-19T05:27:53;10.90;99.90
71367;DHT22;60030;52.274;8.040;2022-10-19T05:30:20;10.90;99.90
71367;DHT22;60030;52.274;8.040;2022-10-19T05:32:47;10.90;99.90
71367;DHT22;60030;52.274;8.040;2022-10-19T05:35:14;10.90;99.90
71367;DHT22;60030;52.274;8.040;2022-10-19T05:37:41;10.90;99.90
71367;DHT22;60030;52.274;8.040;2022-10-19T05:40:09;10.90;99.90
71367;DHT22;60030;52.274;8.040;2022-10-19T05:42:36;11.00;99.90
71367;DHT22;60030;52.274;8.040;2022-10-19T05:45:06;11.00;99.90
71367;DHT22;60030;52.274;8.040;2022-10-19T05:47:33;11.00;99.90
71367;DHT22;60030;52.274;8.040;2022-10-19T05:50:00;11.00;99.90
71367;DHT22;60030;52.274;8.040;2022-10-19T05:52:27;11.00;99.90
71367;DHT22;60030;52.274;8.040;2022-10-19T05:54:55;11.00;99.90
71367;DHT22;60030;52.274;8.040;2022-10-19T05:57:23;11.00;99.90
71367;DHT22;60030;52.274;8.040;2022-10-19T05:59:51;10.90;99.90
71367;DHT22;60030;52.274;8.040;2022-10-19T06:02:22;10.90;99.90
71367;DHT22;60030;52.274;8.040;2022-10-19T06:04:50;10.90;99.90
71367;DHT22;60030;52.274;8.040;2022-10-19T06:07:17;10.80;99.90
71367;DHT22;60030;52.274;8.040;2022-10-19T06:09:44;10.80;99.90
71367;DHT22;60030;52.274;8.040;2022-10-19T06:12:12;10.90;99.90
71367;DHT22;60030;52.274;8.040;2022-10-19T06:14:39;10.90;99.90
71367;DHT22;60030;52.274;8.040;2022-10-19T06:17:07;10.90;99.90
71367;DHT22;60030;52.274;8.040;2022-10-19T06:19:36;11.00;99.90
71367;DHT22;60030;52.274;8.040;2022-10-19T06:22:03;11.00;99.90
71367;DHT22;60030;52.274;8.040;2022-10-19T06:24:30;11.00;99.90
71367;DHT22;60030;52.274;8.040;2022-10-19T06:26:57;11.00;99.90
71367;DHT22;60030;52.274;8.040;2022-10-19T06:29:25;10.90;99.90
71367;DHT22;60030;52.274;8.040;2022-10-19T06:31:52;11.00;99.90
71367;DHT22;60030;52.274;8.040;2022-10-19T06:34:20;11.00;99.90
71367;DHT22;60030;52.274;8.040;2022-10-19T06:36:49;11.00;99.90
71367;DHT22;60030;52.274;8.040;2022-10-19T06:39:16;11.10;99.90
71367;DHT22;60030;52.274;8.040;2022-10-19T06:41:43;11.20;99.90
71367;DHT22;60030;52.274;8.040;2022-10-19T06:44:19;11.20;99.90
71367;DHT22;60030;52.274;8.040;2022-10-19T06:46:46;11.20;99.90
71367;DHT22;60030;52.274;8.040;2022-10-19T06:49:13;11.20;99.90
71367;DHT22;60030;52.274;8.040;2022-10-19T06:51:40;11.30;99.90
71367;DHT22;60030;52.274;8.040;2022-10-19T06:54:09;11.30;99.90
71367;DHT22;60030;52.274;8.040;2022-10-19T06:56:36;11.20;99.90
71367;DHT22;60030;52.274;8.040;2022-10-19T06:59:03;11.30;99.90
71367;DHT22;60030;52.274;8.040;2022-10-19T07:01:30;11.40;99.90
71367;DHT22;60030;52.274;8.040;2022-10-19T07:03:57;11.40;99.90
71367;DHT22;60030;52.274;8.040;2022-10-19T07:06:25;11.40;99.90
71367;DHT22;60030;52.274;8.040;2022-10-19T07:08:53;11.50;99.90
71367;DHT22;60030;52.274;8.040;2022-10-19T07:11:21;11.50;99.90
71367;DHT22;60030;52.274;8.040;2022-10-19T07:13:49;11.50;99.90
71367;DHT22;60030;52.274;8.040;2022-10-19T07:16:17;11.50;99.90
71367;DHT22;60030;52.274;8.040;2022-10-19T07:18:45;11.60;99.90
71367;DHT22;60030;52.274;8.040;2022-10-19T07:21:14;11.60;99.90
71367;DHT22;60030;52.274;8.040;2022-10-19T07:23:43;11.60;99.90
71367;DHT22;60030;52.274;8.040;2022-10-19T07:26:13;11.70;99.90
71367;DHT22;60030;52.274;8.040;2022-10-19T07:28:44;11.80;99.90
71367;DHT22;60030;52.274;8.040;2022-10-19T07:31:12;11.90;99.90
71367;DHT22;60030;52.274;8.040;2022-10-19T07:33:42;11.90;99.90
71367;DHT22;60030;52.274;8.040;2022-10-19T07:36:10;12.00;99.90
71367;DHT22;60030;52.274;8.040;2022-10-19T07:38:38;12.10;99.90
71367;DHT22;60030;52.274;8.040;2022-10-19T07:41:07;12.20;99.90
71367;DHT22;60030;52.274;8.040;2022-10-19T07:43:35;12.30;99.90
71367;DHT22;60030;52.274;8.040;2022-10-19T07:46:06;12.20;99.90
71367;DHT22;60030;52.274;8.040;2022-10-19T07:48:34;12.20;99.90
71367;DHT22;60030;52.274;8.040;2022-10-19T07:51:04;12.10;99.90
71367;DHT22;60030;52.274;8.040;2022-10-19T07:53:31;12.20;99.90
71367;DHT22;60030;52.274;8.040;2022-10-19T07:56:02;12.30;99.90
71367;DHT22;60030;52.274;8.040;2022-10-19T07:58:29;12.40;99.90
71367;DHT22;60030;52.274;8.040;2022-10-19T08:00:59;12.60;99.90
71367;DHT22;60030;52.274;8.040;2022-10-19T08:03:28;12.70;99.90
71367;DHT22;60030;52.274;8.040;2022-10-19T08:05:58;12.80;99.90
71367;DHT22;60030;52.274;8.040;2022-10-19T08:08:26;12.70;99.90
71367;DHT22;60030;52.274;8.040;2022-10-19T08:10:53;12.70;99.90
71367;DHT22;60030;52.274;8.040;2022-10-19T08:13:21;12.70;99.90
71367;DHT22;60030;52.274;8.040;2022-10-19T08:15:49;12.90;99.90
71367;DHT22;60030;52.274;8.040;2022-10-19T08:18:16;12.90;99.90
71367;DHT22;60030;52.274;8.040;2022-10-19T08:20:44;12.90;99.90
71367;DHT22;60030;52.274;8.040;2022-10-19T08:23:11;12.90;99.90
71367;DHT22;60030;52.274;8.040;2022-10-19T08:25:38;13.00;99.90
71367;DHT22;60030;52.274;8.040;2022-10-19T08:28:05;13.00;99.90
71367;DHT22;60030;52.274;8.040;2022-10-19T08:30:33;13.10;99.90
71367;DHT22;60030;52.274;8.040;2022-10-19T08:33:01;13.30;99.90
71367;DHT22;60030;52.274;8.040;2022-10-19T08:35:29;13.30;99.90
71367;DHT22;60030;52.274;8.040;2022-10-19T08:37:58;13.40;99.90
71367;DHT22;60030;52.274;8.040;2022-10-19T08:40:27;13.40;99.90
71367;DHT22;60030;52.274;8.040;2022-10-19T08:42:59;13.50;99.90
71367;DHT22;60030;52.274;8.040;2022-10-19T08:45:36;13.50;99.90
71367;DHT22;60030;52.274;8.040;2022-10-19T08:48:26;13.50;99.90
71367;DHT22;60030;52.274;8.040;2022-10-19T08:50:54;13.50;99.90
71367;DHT22;60030;52.274;8.040;2022-10-19T08:53:30;13.40;99.90
71367;DHT22;60030;52.274;8.040;2022-10-19T08:56:17;13.40;99.90
71367;DHT22;60030;52.274;8.040;2022-10-19T08:58:59;13.40;99.90
71367;DHT22;60030;52.274;8.040;2022-10-19T09:01:36;13.40;99.90
71367;DHT22;60030;52.274;8.040;2022-10-19T09:04:09;13.30;99.90
71367;DHT22;60030;52.274;8.040;2022-10-19T09:06:47;13.40;99.90
71367;DHT22;60030;52.274;8.040;2022-10-19T09:09:17;13.60;99.90
71367;DHT22;60030;52.274;8.040;2022-10-19T09:11:48;13.60;99.90
71367;DHT22;60030;52.274;8.040;2022-10-19T09:14:19;13.60;99.90
71367;DHT22;60030;52.274;8.040;2022-10-19T09:16:48;13.70;99.90
71367;DHT22;60030;52.274;8.040;2022-10-19T09:19:20;13.70;99.90
71367;DHT22;60030;52.274;8.040;2022-10-19T09:21:54;13.70;99.90
71367;DHT22;60030;52.274;8.040;2022-10-19T09:24:29;13.60;99.90
71367;DHT22;60030;52.274;8.040;2022-10-19T09:26:59;13.60;99.90
71367;DHT22;60030;52.274;8.040;2022-10-19T09:29:34;13.80;99.90
71367;DHT22;60030;52.274;8.040;2022-10-19T09:32:04;13.70;99.90
71367;DHT22;60030;52.274;8.040;2022-10-19T09:34:34;13.60;99.90
71367;DHT22;60030;52.274;8.040;2022-10-19T09:37:03;13.80;99.90
71367;DHT22;60030;52.274;8.040;2022-10-19T09:39:31;13.90;99.90
71367;DHT22;60030;52.274;8.040;2022-10-19T09:42:06;14.00;99.90
71367;DHT22;60030;52.274;8.040;2022-10-19T09:44:34;14.30;99.90
71367;DHT22;60030;52.274;8.040;2022-10-19T09:47:11;14.30;99.90
71367;DHT22;60030;52.274;8.040;2022-10-19T09:49:44;14.40;99.90
71367;DHT22;60030;52.274;8.040;2022-10-19T09:52:35;14.40;99.90
71367;DHT22;60030;52.274;8.040;2022-10-19T09:55:09;14.40;99.90
71367;DHT22;60030;52.274;8.040;2022-10-19T09:57:44;14.50;99.90
71367;DHT22;60030;52.274;8.040;2022-10-19T10:00:16;14.60;99.90
71367;DHT22;60030;52.274;8.040;2022-10-19T10:02:48;14.60;99.90
71367;DHT22;60030;52.274;8.040;2022-10-19T10:05:16;14.60;99.90
71367;DHT22;60030;52.274;8.040;2022-10-19T10:07:43;14.60;99.90
71367;DHT22;60030;52.274;8.040;2022-10-19T10:10:22;14.70;99.90
71367;DHT22;60030;52.274;8.040;2022-10-19T10:12:51;14.70;99.90
71367;DHT22;60030;52.274;8.040;2022-10-19T10:15:22;14.70;99.90
71367;DHT22;60030;52.274;8.040;2022-10-19T10:17:51;14.70;99.90
71367;DHT22;60030;52.274;8.040;2022-10-19T10:20:23;14.80;99.90
71367;DHT22;60030;52.274;8.040;2022-10-19T10:22:55;14.80;99.90
71367;DHT22;60030;52.274;8.040;2022-10-19T10:25:28;14.80;99.90
71367;DHT22;60030;52.274;8.040;2022-10-19T10:27:58;14.90;99.90
71367;DHT22;60030;52.274;8.040;2022-10-19T10:30:29;15.00;99.90
71367;DHT22;60030;52.274;8.040;2022-10-19T10:32:58;15.00;99.90
71367;DHT22;60030;52.274;8.040;2022-10-19T10:35:31;15.10;99.90
71367;DHT22;60030;52.274;8.040;2022-10-19T10:38:06;15.20;99.90
71367;DHT22;60030;52.274;8.040;2022-10-19T10:40:37;15.40;99.90
71367;DHT22;60030;52.274;8.040;2022-10-19T10:43:06;15.80;99.90
71367;DHT22;60030;52.274;8.040;2022-10-19T10:45:37;16.00;99.90
71367;DHT22;60030;52.274;8.040;2022-10-19T10:48:17;16.30;99.90
71367;DHT22;60030;52.274;8.040;2022-10-19T10:50:44;16.40;99.90
71367;DHT22;60030;52.274;8.040;2022-10-19T10:53:30;16.30;99.90
71367;DHT22;60030;52.274;8.040;2022-10-19T10:55:59;16.10;99.90
71367;DHT22;60030;52.274;8.040;2022-10-19T10:58:35;16.20;99.90
71367;DHT22;60030;52.274;8.040;2022-10-19T11:01:09;16.10;99.90
71367;DHT22;60030;52.274;8.040;2022-10-19T11:03:46;16.30;99.90
71367;DHT22;60030;52.274;8.040;2022-10-19T11:06:16;16.30;99.90
71367;DHT22;60030;52.274;8.040;2022-10-19T11:08:49;16.60;99.90
71367;DHT22;60030;52.274;8.040;2022-10-19T11:11:20;16.70;99.90
71367;DHT22;60030;52.274;8.040;2022-10-19T11:13:51;16.80;99.90
71367;DHT22;60030;52.274;8.040;2022-10-19T11:16:23;16.80;99.90
71367;DHT22;60030;52.274;8.040;2022-10-19T11:18:55;17.00;99.90
71367;DHT22;60030;52.274;8.040;2022-10-19T11:21:30;17.00;99.90
71367;DHT22;60030;52.274;8.040;2022-10-19T11:24:04;17.00;99.90
71367;DHT22;60030;52.274;8.040;2022-10-19T11:26:54;17.10;99.90
71367;DHT22;60030;52.274;8.040;2022-10-19T11:29:37;17.50;99.90
71367;DHT22;60030;52.274;8.040;2022-10-19T11:32:13;17.40;99.90
71367;DHT22;60030;52.274;8.040;2022-10-19T11:34:54;17.30;99.90
71367;DHT22;60030;52.274;8.040;2022-10-19T11:37:27;17.20;99.90
71367;DHT22;60030;52.274;8.040;2022-10-19T11:40:04;17.30;99.90
71367;DHT22;60030;52.274;8.040;2022-10-19T11:42:46;17.30;99.90
71367;DHT22;60030;52.274;8.040;2022-10-19T11:45:22;17.40;99.90
71367;DHT22;60030;52.274;8.040;2022-10-19T11:51:13;17.10;99.90
71367;DHT22;60030;52.274;8.040;2022-10-19T11:53:51;17.00;99.90
71367;DHT22;60030;52.274;8.040;2022-10-19T11:56:25;17.20;99.90
71367;DHT22;60030;52.274;8.040;2022-10-19T11:58:59;17.00;99.90
71367;DHT22;60030;52.274;8.040;2022-10-19T12:01:36;17.10;99.90
71367;DHT22;60030;52.274;8.040;2022-10-19T12:07:29;17.30;99.90
71367;DHT22;60030;52.274;8.040;2022-10-19T12:10:05;17.00;99.90
71367;DHT22;60030;52.274;8.040;2022-10-19T12:12:35;16.80;99.90
71367;DHT22;60030;52.274;8.040;2022-10-19T12:15:21;16.80;99.90
71367;DHT22;60030;52.274;8.040;2022-10-19T12:17:51;17.30;99.90
71367;DHT22;60030;52.274;8.040;2022-10-19T12:20:25;17.70;99.90
71367;DHT22;60030;52.274;8.040;2022-10-19T12:22:55;18.20;99.90
71367;DHT22;60030;52.274;8.040;2022-10-19T12:25:23;18.40;99.90
71367;DHT22;60030;52.274;8.040;2022-10-19T12:27:52;18.40;99.90
71367;DHT22;60030;52.274;8.040;2022-10-19T12:30:22;18.30;99.90
71367;DHT22;60030;52.274;8.040;2022-10-19T12:33:02;18.10;99.90
71367;DHT22;60030;52.274;8.040;2022-10-19T12:35:44;18.00;99.90
71367;DHT22;60030;52.274;8.040;2022-10-19T12:38:17;17.90;99.90
71367;DHT22;60030;52.274;8.040;2022-10-19T12:40:49;18.00;99.90
71367;DHT22;60030;52.274;8.040;2022-10-19T12:43:24;17.90;99.90
71367;DHT22;60030;52.274;8.040;2022-10-19T12:46:01;17.80;99.90
71367;DHT22;60030;52.274;8.040;2022-10-19T12:48:32;17.60;99.90
71367;DHT22;60030;52.274;8.040;2022-10-19T12:51:15;17.70;99.90
71367;DHT22;60030;52.274;8.040;2022-10-19T12:53:45;17.80;99.90
71367;DHT22;60030;52.274;8.040;2022-10-19T12:56:19;17.90;99.90
71367;DHT22;60030;52.274;8.040;2022-10-19T12:58:53;17.90;99.90
71367;DHT22;60030;52.274;8.040;2022-10-19T13:01:25;18.10;99.90
71367;DHT22;60030;52.274;8.040;2022-10-19T13:04:07;17.70;99.90
71367;DHT22;60030;52.274;8.040;2022-10-19T13:06:37;18.00;99.90
71367;DHT22;60030;52.274;8.040;2022-10-19T13:09:07;18.40;99.90
71367;DHT22;60030;52.274;8.040;2022-10-19T13:11:35;18.50;99.80
71367;DHT22;60030;52.274;8.040;2022-10-19T13:14:05;18.90;98.70
71367;DHT22;60030;52.274;8.040;2022-10-19T13:16:55;19.20;98.40
71367;DHT22;60030;52.274;8.040;2022-10-19T13:19:23;19.10;98.40
71367;DHT22;60030;52.274;8.040;2022-10-19T13:25:21;19.50;97.10
71367;DHT22;60030;52.274;8.040;2022-10-19T13:27:56;20.00;96.00
71367;DHT22;60030;52.274;8.040;2022-10-19T13:31:00;20.30;94.50
71367;DHT22;60030;52.274;8.040;2022-10-19T13:33:48;20.40;93.70
71367;DHT22;60030;52.274;8.040;2022-10-19T13:36:16;21.10;92.40
71367;DHT22;60030;52.274;8.040;2022-10-19T13:38:45;21.60;90.90
71367;DHT22;60030;52.274;8.040;2022-10-19T13:41:20;21.50;89.90
71367;DHT22;60030;52.274;8.040;2022-10-19T13:43:54;21.90;89.30
71367;DHT22;60030;52.274;8.040;2022-10-19T13:46:39;21.90;87.90
71367;DHT22;60030;52.274;8.040;2022-10-19T13:49:59;21.80;87.30
71367;DHT22;60030;52.274;8.040;2022-10-19T13:52:50;21.70;87.40
71367;DHT22;60030;52.274;8.040;2022-10-19T13:55:38;22.20;85.20
71367;DHT22;60030;52.274;8.040;2022-10-19T13:58:34;22.60;82.50
71367;DHT22;60030;52.274;8.040;2022-10-19T14:01:19;23.00;79.70
71367;DHT22;60030;52.274;8.040;2022-10-19T14:04:05;21.70;82.80
71367;DHT22;60030;52.274;8.040;2022-10-19T14:06:42;20.20;88.30
71367;DHT22;60030;52.274;8.040;2022-10-19T14:12:22;18.40;93.50
71367;DHT22;60030;52.274;8.040;2022-10-19T14:14:50;18.10;94.90
71367;DHT22;60030;52.274;8.040;2022-10-19T14:17:19;18.10;95.00
71367;DHT22;60030;52.274;8.040;2022-10-19T14:19:51;17.50;96.00
71367;DHT22;60030;52.274;8.040;2022-10-19T14:22:30;17.60;96.50
71367;DHT22;60030;52.274;8.040;2022-10-19T14:25:00;17.20;97.40
71367;DHT22;60030;52.274;8.040;2022-10-19T14:27:29;16.90;98.50
71367;DHT22;60030;52.274;8.040;2022-10-19T14:29:56;17.20;98.30
71367;DHT22;60030;52.274;8.040;2022-10-19T14:32:25;16.90;98.50
71367;DHT22;60030;52.274;8.040;2022-10-19T14:35:01;16.60;99.20
71367;DHT22;60030;52.274;8.040;2022-10-19T14:37:30;16.50;99.70
71367;DHT22;60030;52.274;8.040;2022-10-19T14:39:59;16.60;99.90
71367;DHT22;60030;52.274;8.040;2022-10-19T14:42:39;16.70;99.90
71367;DHT22;60030;52.274;8.040;2022-10-19T14:45:16;16.50;99.90
71367;DHT22;60030;52.274;8.040;2022-10-19T14:47:54;16.50;99.90
71367;DHT22;60030;52.274;8.040;2022-10-19T14:50:25;16.50;99.90
71367;DHT22;60030;52.274;8.040;2022-10-19T14:52:57;16.50;99.90
71367;DHT22;60030;52.274;8.040;2022-10-19T14:55:31;16.20;99.90
71367;DHT22;60030;52.274;8.040;2022-10-19T14:58:00;16.20;99.90
71367;DHT22;60030;52.274;8.040;2022-10-19T15:00:29;15.90;99.90
71367;DHT22;60030;52.274;8.040;2022-10-19T15:02:59;15.90;99.90
71367;DHT22;60030;52.274;8.040;2022-10-19T15:05:29;15.80;99.90
71367;DHT22;60030;52.274;8.040;2022-10-19T15:08:05;16.10;99.90
71367;DHT22;60030;52.274;8.040;2022-10-19T15:10:39;15.70;99.90
71367;DHT22;60030;52.274;8.040;2022-10-19T15:13:22;15.80;99.90
71367;DHT22;60030;52.274;8.040;2022-10-19T15:15:51;15.80;99.90
71367;DHT22;60030;52.274;8.040;2022-10-19T15:18:22;15.70;99.90
71367;DHT22;60030;52.274;8.040;2022-10-19T15:21:01;15.70;99.90
71367;DHT22;60030;52.274;8.040;2022-10-19T15:23:33;15.80;99.90
71367;DHT22;60030;52.274;8.040;2022-10-19T15:26:11;15.70;99.90
71367;DHT22;60030;52.274;8.040;2022-10-19T15:28:39;15.30;99.90
71367;DHT22;60030;52.274;8.040;2022-10-19T15:31:13;15.10;99.90
71367;DHT22;60030;52.274;8.040;2022-10-19T15:33:43;15.00;99.90
71367;DHT22;60030;52.274;8.040;2022-10-19T15:36:11;15.10;99.90
71367;DHT22;60030;52.274;8.040;2022-10-19T15:38:45;15.10;99.90
71367;DHT22;60030;52.274;8.040;2022-10-19T15:41:19;15.10;99.90
71367;DHT22;60030;52.274;8.040;2022-10-19T15:43:49;14.90;99.90
71367;DHT22;60030;52.274;8.040;2022-10-19T15:46:25;14.90;99.90
71367;DHT22;60030;52.274;8.040;2022-10-19T15:48:57;14.80;99.90
71367;DHT22;60030;52.274;8.040;2022-10-19T15:51:33;14.70;99.90
71367;DHT22;60030;52.274;8.040;2022-10-19T15:54:04;14.80;99.90
71367;DHT22;60030;52.274;8.040;2022-10-19T15:56:33;14.70;99.90
71367;DHT22;60030;52.274;8.040;2022-10-19T15:59:03;14.60;99.90
71367;DHT22;60030;52.274;8.040;2022-10-19T16:01:32;14.50;99.90
71367;DHT22;60030;52.274;8.040;2022-10-19T16:03:59;14.30;99.90
71367;DHT22;60030;52.274;8.040;2022-10-19T16:06:28;14.50;99.90
71367;DHT22;60030;52.274;8.040;2022-10-19T16:08:56;14.60;99.90
71367;DHT22;60030;52.274;8.040;2022-10-19T16:11:27;14.40;99.90